sensor_id;sensor_type;location;lat;lon;timestamp;temperature;humidity
52415;DHT22;38340;52.964;6.086;2023-04-24T00:01:43;11.10;99.90
52415;DHT22;38340;52.964;6.086;2023-04-24T00:04:09;11.10;99.90
52415;DHT22;38340;52.964;6.086;2023-04-24T00:06:37;11.00;99.90
52415;DHT22;38340;52.964;6.086;2023-04-24T00:09:05;11.00;99.90
52415;DHT22;38340;52.964;6.086;2023-04-24T00:11:31;11.00;99.90
52415;DHT22;38340;52.964;6.086;2023-04-24T00:13:57;10.90;99.90
52415;DHT22;38340;52.964;6.086;2023-04-24T00:16:23;10.90;99.90
52415;DHT22;38340;52.964;6.086;2023-04-24T00:18:49;10.80;99.90
52415;DHT22;38340;52.964;6.086;2023-04-24T00:21:15;10.80;99.90
52415;DHT22;38340;52.964;6.086;2023-04-24T00:23:44;10.70;99.90
52415;DHT22;38340;52.964;6.086;2023-04-24T00:26:10;10.70;99.90
52415;DHT22;38340;52.964;6.086;2023-04-24T00:28:35;10.60;99.90
52415;DHT22;38340;52.964;6.086;2023-04-24T00:31:01;10.60;99.90
52415;DHT22;38340;52.964;6.086;2023-04-24T00:33:27;10.50;99.90
52415;DHT22;38340;52.964;6.086;2023-04-24T00:35:53;10.50;99.90
52415;DHT22;38340;52.964;6.086;2023-04-24T00:38:18;10.50;99.90
52415;DHT22;38340;52.964;6.086;2023-04-24T00:40:44;10.40;99.90
52415;DHT22;38340;52.964;6.086;2023-04-24T00:43:10;10.40;99.90
52415;DHT22;38340;52.964;6.086;2023-04-24T00:45:37;10.40;99.90
52415;DHT22;38340;52.964;6.086;2023-04-24T00:48:04;10.30;99.90
52415;DHT22;38340;52.964;6.086;2023-04-24T00:50:30;10.30;99.90
52415;DHT22;38340;52.964;6.086;2023-04-24T00:52:56;10.30;99.90
52415;DHT22;38340;52.964;6.086;2023-04-24T00:55:21;10.30;99.90
52415;DHT22;38340;52.964;6.086;2023-04-24T00:57:48;10.30;99.90
52415;DHT22;38340;52.964;6.086;2023-04-24T01:00:15;10.30;99.90
52415;DHT22;38340;52.964;6.086;2023-04-24T01:02:43;10.30;99.90
52415;DHT22;38340;52.964;6.086;2023-04-24T01:05:11;10.30;99.90
52415;DHT22;38340;52.964;6.086;2023-04-24T01:07:39;10.30;99.90
52415;DHT22;38340;52.964;6.086;2023-04-24T01:10:07;10.30;99.90
52415;DHT22;38340;52.964;6.086;2023-04-24T01:12:33;10.30;99.90
52415;DHT22;38340;52.964;6.086;2023-04-24T01:14:59;10.30;99.90
52415;DHT22;38340;52.964;6.086;2023-04-24T01:17:25;10.30;99.90
52415;DHT22;38340;52.964;6.086;2023-04-24T01:19:50;10.30;99.90
52415;DHT22;38340;52.964;6.086;2023-04-24T01:22:19;10.30;99.90
52415;DHT22;38340;52.964;6.086;2023-04-24T01:24:46;10.30;99.90
52415;DHT22;38340;52.964;6.086;2023-04-24T01:27:12;10.30;99.90
52415;DHT22;38340;52.964;6.086;2023-04-24T01:29:38;10.30;99.90
52415;DHT22;38340;52.964;6.086;2023-04-24T01:32:05;10.30;99.90
52415;DHT22;38340;52.964;6.086;2023-04-24T01:34:31;10.30;99.90
52415;DHT22;38340;52.964;6.086;2023-04-24T01:36:56;10.30;99.90
52415;DHT22;38340;52.964;6.086;2023-04-24T01:39:22;10.30;99.90
52415;DHT22;38340;52.964;6.086;2023-04-24T01:41:52;10.20;99.90
52415;DHT22;38340;52.964;6.086;2023-04-24T01:44:18;10.20;99.90
52415;DHT22;38340;52.964;6.086;2023-04-24T01:46:44;10.20;99.90
52415;DHT22;38340;52.964;6.086;2023-04-24T01:49:10;10.20;99.90
52415;DHT22;38340;52.964;6.086;2023-04-24T01:51:36;10.20;99.90
52415;DHT22;38340;52.964;6.086;2023-04-24T01:54:02;10.10;99.90
52415;DHT22;38340;52.964;6.086;2023-04-24T01:56:33;10.20;99.90
52415;DHT22;38340;52.964;6.086;2023-04-24T01:59:00;10.10;99.90
52415;DHT22;38340;52.964;6.086;2023-04-24T02:01:26;10.10;99.90
52415;DHT22;38340;52.964;6.086;2023-04-24T02:03:51;10.10;99.90
52415;DHT22;38340;52.964;6.086;2023-04-24T02:06:17;10.10;99.90
52415;DHT22;38340;52.964;6.086;2023-04-24T02:08:43;10.10;99.90
52415;DHT22;38340;52.964;6.086;2023-04-24T02:11:09;10.10;99.90
52415;DHT22;38340;52.964;6.086;2023-04-24T02:13:35;10.10;99.90
52415;DHT22;38340;52.964;6.086;2023-04-24T02:16:00;10.10;99.90
52415;DHT22;38340;52.964;6.086;2023-04-24T02:18:26;10.10;99.90
52415;DHT22;38340;52.964;6.086;2023-04-24T02:20:52;10.10;99.90
52415;DHT22;38340;52.964;6.086;2023-04-24T02:23:18;10.10;99.90
52415;DHT22;38340;52.964;6.086;2023-04-24T02:25:43;10.00;99.90
52415;DHT22;38340;52.964;6.086;2023-04-24T02:28:09;10.10;99.90
52415;DHT22;38340;52.964;6.086;2023-04-24T02:30:35;10.10;99.90
52415;DHT22;38340;52.964;6.086;2023-04-24T02:33:00;10.00;99.90
52415;DHT22;38340;52.964;6.086;2023-04-24T02:35:26;10.10;99.90
52415;DHT22;38340;52.964;6.086;2023-04-24T02:37:52;10.00;99.90
52415;DHT22;38340;52.964;6.086;2023-04-24T02:40:17;10.00;99.90
52415;DHT22;38340;52.964;6.086;2023-04-24T02:42:43;10.10;99.90
52415;DHT22;38340;52.964;6.086;2023-04-24T02:45:09;10.10;99.90
52415;DHT22;38340;52.964;6.086;2023-04-24T02:47:35;10.10;99.90
52415;DHT22;38340;52.964;6.086;2023-04-24T02:50:02;10.10;99.90
52415;DHT22;38340;52.964;6.086;2023-04-24T02:52:28;10.10;99.90
52415;DHT22;38340;52.964;6.086;2023-04-24T02:54:54;10.00;99.90
52415;DHT22;38340;52.964;6.086;2023-04-24T02:57:19;10.10;99.90
52415;DHT22;38340;52.964;6.086;2023-04-24T02:59:45;10.10;99.90
52415;DHT22;38340;52.964;6.086;2023-04-24T03:02:11;10.10;99.90
52415;DHT22;38340;52.964;6.086;2023-04-24T03:04:36;10.10;99.90
52415;DHT22;38340;52.964;6.086;2023-04-24T03:07:02;10.10;99.90
52415;DHT22;38340;52.964;6.086;2023-04-24T03:09:28;10.10;99.90
52415;DHT22;38340;52.964;6.086;2023-04-24T03:11:53;10.10;99.90
52415;DHT22;38340;52.964;6.086;2023-04-24T03:14:19;10.20;99.90
52415;DHT22;38340;52.964;6.086;2023-04-24T03:16:45;10.10;99.90
52415;DHT22;38340;52.964;6.086;2023-04-24T03:19:11;10.10;99.90
52415;DHT22;38340;52.964;6.086;2023-04-24T03:21:36;10.10;99.90
52415;DHT22;38340;52.964;6.086;2023-04-24T03:24:09;10.10;99.90
52415;DHT22;38340;52.964;6.086;2023-04-24T03:26:35;10.10;99.90
52415;DHT22;38340;52.964;6.086;2023-04-24T03:29:01;10.10;99.90
52415;DHT22;38340;52.964;6.086;2023-04-24T03:31:27;10.00;99.90
52415;DHT22;38340;52.964;6.086;2023-04-24T03:33:52;10.00;99.90
52415;DHT22;38340;52.964;6.086;2023-04-24T03:36:18;10.00;99.90
52415;DHT22;38340;52.964;6.086;2023-04-24T03:38:44;10.00;99.90
52415;DHT22;38340;52.964;6.086;2023-04-24T03:41:11;10.00;99.90
52415;DHT22;38340;52.964;6.086;2023-04-24T03:43:37;10.00;99.90
52415;DHT22;38340;52.964;6.086;2023-04-24T03:46:03;10.00;99.90
52415;DHT22;38340;52.964;6.086;2023-04-24T03:48:29;10.00;99.90
52415;DHT22;38340;52.964;6.086;2023-04-24T03:50:55;10.00;99.90
52415;DHT22;38340;52.964;6.086;2023-04-24T03:53:20;10.00;99.90
52415;DHT22;38340;52.964;6.086;2023-04-24T03:55:46;10.00;99.90
52415;DHT22;38340;52.964;6.086;2023-04-24T03:58:12;10.00;99.90
52415;DHT22;38340;52.964;6.086;2023-04-24T04:00:40;10.00;99.90
52415;DHT22;38340;52.964;6.086;2023-04-24T04:03:06;10.00;99.90
52415;DHT22;38340;52.964;6.086;2023-04-24T04:05:32;9.90;99.90
52415;DHT22;38340;52.964;6.086;2023-04-24T04:07:57;9.90;99.90
52415;DHT22;38340;52.964;6.086;2023-04-24T04:10:23;9.90;99.90
52415;DHT22;38340;52.964;6.086;2023-04-24T04:12:48;9.90;99.90
52415;DHT22;38340;52.964;6.086;2023-04-24T04:15:14;9.90;99.90
52415;DHT22;38340;52.964;6.086;2023-04-24T04:17:40;9.80;99.90
52415;DHT22;38340;52.964;6.086;2023-04-24T04:20:06;9.80;99.90
52415;DHT22;38340;52.964;6.086;2023-04-24T04:22:35;9.80;99.90
52415;DHT22;38340;52.964;6.086;2023-04-24T04:25:01;9.80;99.90
52415;DHT22;38340;52.964;6.086;2023-04-24T04:27:26;9.80;99.90
52415;DHT22;38340;52.964;6.086;2023-04-24T04:29:53;9.80;99.90
52415;DHT22;38340;52.964;6.086;2023-04-24T04:32:22;9.80;99.90
52415;DHT22;38340;52.964;6.086;2023-04-24T04:34:47;9.80;99.90
52415;DHT22;38340;52.964;6.086;2023-04-24T04:37:14;9.70;99.90
52415;DHT22;38340;52.964;6.086;2023-04-24T04:39:40;9.70;99.90
52415;DHT22;38340;52.964;6.086;2023-04-24T04:42:06;9.70;99.90
52415;DHT22;38340;52.964;6.086;2023-04-24T04:44:32;9.70;99.90
52415;DHT22;38340;52.964;6.086;2023-04-24T04:46:58;9.70;99.90
52415;DHT22;38340;52.964;6.086;2023-04-24T04:49:25;9.60;99.90
52415;DHT22;38340;52.964;6.086;2023-04-24T04:51:53;9.60;99.90
52415;DHT22;38340;52.964;6.086;2023-04-24T04:54:19;9.60;99.90
52415;DHT22;38340;52.964;6.086;2023-04-24T04:56:45;9.60;99.90
52415;DHT22;38340;52.964;6.086;2023-04-24T04:59:10;9.60;99.90
52415;DHT22;38340;52.964;6.086;2023-04-24T05:01:36;9.60;99.90
52415;DHT22;38340;52.964;6.086;2023-04-24T05:04:02;9.60;99.90
52415;DHT22;38340;52.964;6.086;2023-04-24T05:06:27;9.60;99.90
52415;DHT22;38340;52.964;6.086;2023-04-24T05:08:53;9.50;99.90
52415;DHT22;38340;52.964;6.086;2023-04-24T05:11:22;9.50;99.90
52415;DHT22;38340;52.964;6.086;2023-04-24T05:13:48;9.50;99.90
52415;DHT22;38340;52.964;6.086;2023-04-24T05:16:14;9.50;99.90
52415;DHT22;38340;52.964;6.086;2023-04-24T05:18:40;9.50;99.90
52415;DHT22;38340;52.964;6.086;2023-04-24T05:21:05;9.50;99.90
52415;DHT22;38340;52.964;6.086;2023-04-24T05:23:31;9.50;99.90
52415;DHT22;38340;52.964;6.086;2023-04-24T05:25:57;9.50;99.90
52415;DHT22;38340;52.964;6.086;2023-04-24T05:28:23;9.50;99.90
52415;DHT22;38340;52.964;6.086;2023-04-24T05:30:48;9.50;99.90
52415;DHT22;38340;52.964;6.086;2023-04-24T05:33:14;9.50;99.90
52415;DHT22;38340;52.964;6.086;2023-04-24T05:35:40;9.60;99.90
52415;DHT22;38340;52.964;6.086;2023-04-24T05:38:12;9.60;99.90
52415;DHT22;38340;52.964;6.086;2023-04-24T05:40:39;9.60;99.90
52415;DHT22;38340;52.964;6.086;2023-04-24T05:43:04;9.60;99.90
52415;DHT22;38340;52.964;6.086;2023-04-24T05:45:30;9.60;99.90
52415;DHT22;38340;52.964;6.086;2023-04-24T05:47:57;9.60;99.90
52415;DHT22;38340;52.964;6.086;2023-04-24T05:50:22;9.50;99.90
52415;DHT22;38340;52.964;6.086;2023-04-24T05:52:48;9.50;99.90
52415;DHT22;38340;52.964;6.086;2023-04-24T05:55:14;9.50;99.90
52415;DHT22;38340;52.964;6.086;2023-04-24T05:57:39;9.50;99.90
52415;DHT22;38340;52.964;6.086;2023-04-24T06:00:06;9.50;99.90
52415;DHT22;38340;52.964;6.086;2023-04-24T06:02:32;9.50;99.90
52415;DHT22;38340;52.964;6.086;2023-04-24T06:05:01;9.50;99.90
52415;DHT22;38340;52.964;6.086;2023-04-24T06:07:27;9.50;99.90
52415;DHT22;38340;52.964;6.086;2023-04-24T06:09:52;9.50;99.90
52415;DHT22;38340;52.964;6.086;2023-04-24T06:12:18;9.50;99.90
52415;DHT22;38340;52.964;6.086;2023-04-24T06:14:44;9.50;99.90
52415;DHT22;38340;52.964;6.086;2023-04-24T06:17:10;9.50;99.90
52415;DHT22;38340;52.964;6.086;2023-04-24T06:19:35;9.50;99.90
52415;DHT22;38340;52.964;6.086;2023-04-24T06:22:01;9.50;99.90
52415;DHT22;38340;52.964;6.086;2023-04-24T06:24:28;9.50;99.90
52415;DHT22;38340;52.964;6.086;2023-04-24T06:26:53;9.60;99.90
52415;DHT22;38340;52.964;6.086;2023-04-24T06:29:19;9.60;99.90
52415;DHT22;38340;52.964;6.086;2023-04-24T06:31:45;9.50;99.90
52415;DHT22;38340;52.964;6.086;2023-04-24T06:34:11;9.50;99.90
52415;DHT22;38340;52.964;6.086;2023-04-24T06:36:36;9.50;99.90
52415;DHT22;38340;52.964;6.086;2023-04-24T06:39:02;9.50;99.90
52415;DHT22;38340;52.964;6.086;2023-04-24T06:41:28;9.50;99.90
52415;DHT22;38340;52.964;6.086;2023-04-24T06:43:54;9.50;99.90
52415;DHT22;38340;52.964;6.086;2023-04-24T06:46:20;9.50;99.90
52415;DHT22;38340;52.964;6.086;2023-04-24T06:48:49;9.50;99.90
52415;DHT22;38340;52.964;6.086;2023-04-24T06:51:16;9.60;99.90
52415;DHT22;38340;52.964;6.086;2023-04-24T06:53:43;9.50;99.90
52415;DHT22;38340;52.964;6.086;2023-04-24T06:56:09;9.40;99.90
52415;DHT22;38340;52.964;6.086;2023-04-24T06:58:35;9.40;99.90
52415;DHT22;38340;52.964;6.086;2023-04-24T07:01:00;9.40;99.90
52415;DHT22;38340;52.964;6.086;2023-04-24T07:03:26;9.40;99.90
52415;DHT22;38340;52.964;6.086;2023-04-24T07:05:52;9.40;99.90
52415;DHT22;38340;52.964;6.086;2023-04-24T07:08:18;9.40;99.90
52415;DHT22;38340;52.964;6.086;2023-04-24T07:10:45;9.40;99.90
52415;DHT22;38340;52.964;6.086;2023-04-24T07:13:11;9.20;99.90
52415;DHT22;38340;52.964;6.086;2023-04-24T07:15:37;9.20;99.90
52415;DHT22;38340;52.964;6.086;2023-04-24T07:18:03;9.20;99.90
52415;DHT22;38340;52.964;6.086;2023-04-24T07:20:28;9.10;99.90
52415;DHT22;38340;52.964;6.086;2023-04-24T07:22:54;9.10;99.90
52415;DHT22;38340;52.964;6.086;2023-04-24T07:25:20;9.10;99.90
52415;DHT22;38340;52.964;6.086;2023-04-24T07:27:46;9.00;99.90
52415;DHT22;38340;52.964;6.086;2023-04-24T07:30:11;9.00;99.90
52415;DHT22;38340;52.964;6.086;2023-04-24T07:32:37;9.00;99.90
52415;DHT22;38340;52.964;6.086;2023-04-24T07:35:03;9.00;99.90
52415;DHT22;38340;52.964;6.086;2023-04-24T07:37:29;9.00;99.90
52415;DHT22;38340;52.964;6.086;2023-04-24T07:39:55;8.90;99.90
52415;DHT22;38340;52.964;6.086;2023-04-24T07:42:20;8.90;99.90
52415;DHT22;38340;52.964;6.086;2023-04-24T07:44:46;8.90;99.90
52415;DHT22;38340;52.964;6.086;2023-04-24T07:47:13;8.90;99.90
52415;DHT22;38340;52.964;6.086;2023-04-24T07:49:44;8.90;99.90
52415;DHT22;38340;52.964;6.086;2023-04-24T07:52:10;8.90;99.90
52415;DHT22;38340;52.964;6.086;2023-04-24T07:54:35;8.90;99.90
52415;DHT22;38340;52.964;6.086;2023-04-24T07:57:03;8.90;99.90
52415;DHT22;38340;52.964;6.086;2023-04-24T07:59:28;8.90;99.90
52415;DHT22;38340;52.964;6.086;2023-04-24T08:01:54;8.80;99.90
52415;DHT22;38340;52.964;6.086;2023-04-24T08:04:20;8.80;99.90
52415;DHT22;38340;52.964;6.086;2023-04-24T08:06:47;8.80;99.90
52415;DHT22;38340;52.964;6.086;2023-04-24T08:09:13;8.80;99.90
52415;DHT22;38340;52.964;6.086;2023-04-24T08:11:39;8.70;99.90
52415;DHT22;38340;52.964;6.086;2023-04-24T08:14:05;8.70;99.90
52415;DHT22;38340;52.964;6.086;2023-04-24T08:16:32;8.60;99.90
52415;DHT22;38340;52.964;6.086;2023-04-24T08:18:58;8.70;99.90
52415;DHT22;38340;52.964;6.086;2023-04-24T08:21:24;8.70;99.90
52415;DHT22;38340;52.964;6.086;2023-04-24T08:23:51;8.70;99.90
52415;DHT22;38340;52.964;6.086;2023-04-24T08:26:17;8.80;99.90
52415;DHT22;38340;52.964;6.086;2023-04-24T08:28:43;8.80;99.90
52415;DHT22;38340;52.964;6.086;2023-04-24T08:31:08;8.70;99.90
52415;DHT22;38340;52.964;6.086;2023-04-24T08:33:34;8.80;99.90
52415;DHT22;38340;52.964;6.086;2023-04-24T08:36:04;8.80;99.90
52415;DHT22;38340;52.964;6.086;2023-04-24T08:38:31;8.90;99.90
52415;DHT22;38340;52.964;6.086;2023-04-24T08:40:58;9.00;99.90
52415;DHT22;38340;52.964;6.086;2023-04-24T08:43:25;9.10;99.90
52415;DHT22;38340;52.964;6.086;2023-04-24T08:45:52;9.20;99.90
52415;DHT22;38340;52.964;6.086;2023-04-24T08:48:18;9.20;99.90
52415;DHT22;38340;52.964;6.086;2023-04-24T08:50:44;9.30;99.90
52415;DHT22;38340;52.964;6.086;2023-04-24T08:53:10;9.20;99.90
52415;DHT22;38340;52.964;6.086;2023-04-24T08:55:37;9.20;99.90
52415;DHT22;38340;52.964;6.086;2023-04-24T08:58:03;9.10;99.90
52415;DHT22;38340;52.964;6.086;2023-04-24T09:00:30;9.10;99.90
52415;DHT22;38340;52.964;6.086;2023-04-24T09:02:56;9.00;99.90
52415;DHT22;38340;52.964;6.086;2023-04-24T09:05:22;8.90;99.90
52415;DHT22;38340;52.964;6.086;2023-04-24T09:07:55;8.90;99.90
52415;DHT22;38340;52.964;6.086;2023-04-24T09:10:25;9.00;99.90
52415;DHT22;38340;52.964;6.086;2023-04-24T09:12:52;9.00;99.90
52415;DHT22;38340;52.964;6.086;2023-04-24T09:15:21;9.10;99.90
52415;DHT22;38340;52.964;6.086;2023-04-24T09:17:47;9.20;99.90
52415;DHT22;38340;52.964;6.086;2023-04-24T09:20:13;9.20;99.90
52415;DHT22;38340;52.964;6.086;2023-04-24T09:22:39;9.30;99.90
52415;DHT22;38340;52.964;6.086;2023-04-24T09:25:08;9.30;99.90
52415;DHT22;38340;52.964;6.086;2023-04-24T09:27:34;9.50;99.90
52415;DHT22;38340;52.964;6.086;2023-04-24T09:30:01;9.60;99.90
52415;DHT22;38340;52.964;6.086;2023-04-24T09:32:27;9.70;99.90
52415;DHT22;38340;52.964;6.086;2023-04-24T09:35:06;9.70;99.90
52415;DHT22;38340;52.964;6.086;2023-04-24T09:37:38;9.70;99.90
52415;DHT22;38340;52.964;6.086;2023-04-24T09:40:17;9.60;99.90
52415;DHT22;38340;52.964;6.086;2023-04-24T09:42:45;9.50;99.90
52415;DHT22;38340;52.964;6.086;2023-04-24T09:45:11;9.40;99.90
52415;DHT22;38340;52.964;6.086;2023-04-24T09:47:38;9.30;99.90
52415;DHT22;38340;52.964;6.086;2023-04-24T09:50:11;9.10;99.90
52415;DHT22;38340;52.964;6.086;2023-04-24T09:52:56;9.10;99.90
52415;DHT22;38340;52.964;6.086;2023-04-24T09:55:22;9.10;99.90
52415;DHT22;38340;52.964;6.086;2023-04-24T09:57:51;9.10;99.90
52415;DHT22;38340;52.964;6.086;2023-04-24T10:00:22;9.00;99.90
52415;DHT22;38340;52.964;6.086;2023-04-24T10:02:58;9.00;99.90
52415;DHT22;38340;52.964;6.086;2023-04-24T10:05:27;9.00;99.90
52415;DHT22;38340;52.964;6.086;2023-04-24T10:08:07;9.10;99.90
52415;DHT22;38340;52.964;6.086;2023-04-24T10:10:35;9.10;99.90
52415;DHT22;38340;52.964;6.086;2023-04-24T10:13:02;9.10;99.90
52415;DHT22;38340;52.964;6.086;2023-04-24T10:15:29;9.10;99.90
52415;DHT22;38340;52.964;6.086;2023-04-24T10:17:58;9.10;99.90
52415;DHT22;38340;52.964;6.086;2023-04-24T10:20:29;9.20;99.90
52415;DHT22;38340;52.964;6.086;2023-04-24T10:22:56;9.20;99.90
52415;DHT22;38340;52.964;6.086;2023-04-24T10:25:30;9.30;99.90
52415;DHT22;38340;52.964;6.086;2023-04-24T10:27:56;9.40;99.90
52415;DHT22;38340;52.964;6.086;2023-04-24T10:30:27;9.40;99.90
52415;DHT22;38340;52.964;6.086;2023-04-24T10:32:53;9.40;99.90
52415;DHT22;38340;52.964;6.086;2023-04-24T10:35:19;9.40;99.90
52415;DHT22;38340;52.964;6.086;2023-04-24T10:38:09;9.30;99.90
52415;DHT22;38340;52.964;6.086;2023-04-24T10:40:36;9.30;99.90
52415;DHT22;38340;52.964;6.086;2023-04-24T10:43:03;9.20;99.90
52415;DHT22;38340;52.964;6.086;2023-04-24T10:45:31;9.20;99.90
52415;DHT22;38340;52.964;6.086;2023-04-24T10:48:06;9.10;99.90
52415;DHT22;38340;52.964;6.086;2023-04-24T10:50:47;9.10;99.90
52415;DHT22;38340;52.964;6.086;2023-04-24T10:53:19;9.20;99.90
52415;DHT22;38340;52.964;6.086;2023-04-24T10:55:48;9.20;99.90
52415;DHT22;38340;52.964;6.086;2023-04-24T10:58:14;9.30;99.90
52415;DHT22;38340;52.964;6.086;2023-04-24T11:00:43;9.50;99.90
52415;DHT22;38340;52.964;6.086;2023-04-24T11:03:29;9.50;99.90
52415;DHT22;38340;52.964;6.086;2023-04-24T11:08:48;9.70;99.90
52415;DHT22;38340;52.964;6.086;2023-04-24T11:11:18;9.80;99.90
52415;DHT22;38340;52.964;6.086;2023-04-24T11:16:35;9.80;99.90
52415;DHT22;38340;52.964;6.086;2023-04-24T11:22:05;9.40;99.90
52415;DHT22;38340;52.964;6.086;2023-04-24T11:24:49;9.50;99.90
52415;DHT22;38340;52.964;6.086;2023-04-24T11:27:18;9.40;99.90
52415;DHT22;38340;52.964;6.086;2023-04-24T11:29:49;9.50;99.90
52415;DHT22;38340;52.964;6.086;2023-04-24T11:32:16;9.70;99.90
52415;DHT22;38340;52.964;6.086;2023-04-24T11:34:48;9.60;99.90
52415;DHT22;38340;52.964;6.086;2023-04-24T11:37:14;9.60;99.90
52415;DHT22;38340;52.964;6.086;2023-04-24T11:39:40;9.50;99.90
52415;DHT22;38340;52.964;6.086;2023-04-24T11:42:07;9.40;99.90
52415;DHT22;38340;52.964;6.086;2023-04-24T11:44:34;9.50;99.90
52415;DHT22;38340;52.964;6.086;2023-04-24T11:47:04;9.50;99.90
52415;DHT22;38340;52.964;6.086;2023-04-24T11:49:30;9.60;99.90
52415;DHT22;38340;52.964;6.086;2023-04-24T11:51:55;9.90;99.90
52415;DHT22;38340;52.964;6.086;2023-04-24T11:54:22;10.30;99.90
52415;DHT22;38340;52.964;6.086;2023-04-24T11:56:48;10.50;99.90
52415;DHT22;38340;52.964;6.086;2023-04-24T11:59:14;10.50;1.00
52415;DHT22;38340;52.964;6.086;2023-04-24T12:01:46;10.60;99.90
52415;DHT22;38340;52.964;6.086;2023-04-24T12:04:13;10.60;1.00
52415;DHT22;38340;52.964;6.086;2023-04-24T12:06:39;10.70;1.00
52415;DHT22;38340;52.964;6.086;2023-04-24T12:09:05;10.70;1.00
52415;DHT22;38340;52.964;6.086;2023-04-24T12:11:30;10.60;1.00
52415;DHT22;38340;52.964;6.086;2023-04-24T12:13:56;10.30;99.90
52415;DHT22;38340;52.964;6.086;2023-04-24T12:16:23;10.40;99.90
52415;DHT22;38340;52.964;6.086;2023-04-24T12:18:51;10.30;99.90
52415;DHT22;38340;52.964;6.086;2023-04-24T12:21:23;10.30;1.00
52415;DHT22;38340;52.964;6.086;2023-04-24T12:23:54;10.40;1.00
52415;DHT22;38340;52.964;6.086;2023-04-24T12:26:20;10.40;84.90
52415;DHT22;38340;52.964;6.086;2023-04-24T12:28:49;10.30;1.00
52415;DHT22;38340;52.964;6.086;2023-04-24T12:31:20;10.00;1.00
52415;DHT22;38340;52.964;6.086;2023-04-24T12:33:46;9.80;1.00
52415;DHT22;38340;52.964;6.086;2023-04-24T12:36:12;9.80;21.40
52415;DHT22;38340;52.964;6.086;2023-04-24T12:38:38;9.90;1.00
52415;DHT22;38340;52.964;6.086;2023-04-24T12:41:09;10.00;1.00
52415;DHT22;38340;52.964;6.086;2023-04-24T12:43:36;10.10;86.00
52415;DHT22;38340;52.964;6.086;2023-04-24T12:46:02;10.20;1.00
52415;DHT22;38340;52.964;6.086;2023-04-24T12:48:28;10.30;93.70
52415;DHT22;38340;52.964;6.086;2023-04-24T12:50:54;10.20;18.90
52415;DHT22;38340;52.964;6.086;2023-04-24T12:53:21;10.00;1.00
52415;DHT22;38340;52.964;6.086;2023-04-24T12:55:47;10.10;1.00
52415;DHT22;38340;52.964;6.086;2023-04-24T12:58:21;10.00;99.90
52415;DHT22;38340;52.964;6.086;2023-04-24T13:00:47;9.90;6.30
52415;DHT22;38340;52.964;6.086;2023-04-24T13:03:13;9.80;1.00
52415;DHT22;38340;52.964;6.086;2023-04-24T13:05:39;9.50;1.00
52415;DHT22;38340;52.964;6.086;2023-04-24T13:08:05;9.40;98.80
52415;DHT22;38340;52.964;6.086;2023-04-24T13:10:30;9.40;94.70
52415;DHT22;38340;52.964;6.086;2023-04-24T13:12:56;9.40;99.90
52415;DHT22;38340;52.964;6.086;2023-04-24T13:15:23;9.60;99.90
52415;DHT22;38340;52.964;6.086;2023-04-24T13:17:50;9.70;99.90
52415;DHT22;38340;52.964;6.086;2023-04-24T13:20:16;9.70;85.40
52415;DHT22;38340;52.964;6.086;2023-04-24T13:22:42;9.90;99.90
52415;DHT22;38340;52.964;6.086;2023-04-24T13:25:08;9.80;99.90
52415;DHT22;38340;52.964;6.086;2023-04-24T13:27:34;9.90;15.00
52415;DHT22;38340;52.964;6.086;2023-04-24T13:30:00;10.00;1.00
52415;DHT22;38340;52.964;6.086;2023-04-24T13:32:26;10.20;99.90
52415;DHT22;38340;52.964;6.086;2023-04-24T13:34:53;10.20;99.90
52415;DHT22;38340;52.964;6.086;2023-04-24T13:37:18;10.10;1.00
52415;DHT22;38340;52.964;6.086;2023-04-24T13:39:44;10.00;1.00
52415;DHT22;38340;52.964;6.086;2023-04-24T13:42:10;9.90;1.00
52415;DHT22;38340;52.964;6.086;2023-04-24T13:44:37;10.00;99.90
52415;DHT22;38340;52.964;6.086;2023-04-24T13:47:03;10.00;99.90
52415;DHT22;38340;52.964;6.086;2023-04-24T13:49:28;10.00;99.90
52415;DHT22;38340;52.964;6.086;2023-04-24T13:51:55;10.00;99.90
52415;DHT22;38340;52.964;6.086;2023-04-24T13:54:21;9.90;29.10
52415;DHT22;38340;52.964;6.086;2023-04-24T13:56:49;9.80;99.90
52415;DHT22;38340;52.964;6.086;2023-04-24T13:59:15;9.70;99.90
52415;DHT22;38340;52.964;6.086;2023-04-24T14:01:40;9.60;64.80
52415;DHT22;38340;52.964;6.086;2023-04-24T14:04:06;9.50;99.90
52415;DHT22;38340;52.964;6.086;2023-04-24T14:06:32;9.40;99.90
52415;DHT22;38340;52.964;6.086;2023-04-24T14:08:57;9.40;99.90
52415;DHT22;38340;52.964;6.086;2023-04-24T14:11:23;9.50;99.90
52415;DHT22;38340;52.964;6.086;2023-04-24T14:13:49;9.60;99.90
52415;DHT22;38340;52.964;6.086;2023-04-24T14:16:15;9.60;99.90
52415;DHT22;38340;52.964;6.086;2023-04-24T14:18:41;9.60;99.90
52415;DHT22;38340;52.964;6.086;2023-04-24T14:21:07;9.50;99.90
52415;DHT22;38340;52.964;6.086;2023-04-24T14:23:33;9.40;99.90
52415;DHT22;38340;52.964;6.086;2023-04-24T14:25:59;9.40;99.90
52415;DHT22;38340;52.964;6.086;2023-04-24T14:28:25;9.40;99.90
52415;DHT22;38340;52.964;6.086;2023-04-24T14:30:52;9.40;99.90
52415;DHT22;38340;52.964;6.086;2023-04-24T14:33:18;9.50;99.90
52415;DHT22;38340;52.964;6.086;2023-04-24T14:35:44;9.60;99.90
52415;DHT22;38340;52.964;6.086;2023-04-24T14:38:10;9.60;99.90
52415;DHT22;38340;52.964;6.086;2023-04-24T14:40:36;9.60;99.90
52415;DHT22;38340;52.964;6.086;2023-04-24T14:43:02;9.70;99.90
52415;DHT22;38340;52.964;6.086;2023-04-24T14:45:28;9.70;99.90
52415;DHT22;38340;52.964;6.086;2023-04-24T14:47:55;9.70;99.90
52415;DHT22;38340;52.964;6.086;2023-04-24T14:50:21;9.70;99.90
52415;DHT22;38340;52.964;6.086;2023-04-24T14:52:47;9.50;99.90
52415;DHT22;38340;52.964;6.086;2023-04-24T14:55:13;9.30;99.90
52415;DHT22;38340;52.964;6.086;2023-04-24T14:57:39;9.20;99.90
52415;DHT22;38340;52.964;6.086;2023-04-24T15:00:06;9.10;99.90
52415;DHT22;38340;52.964;6.086;2023-04-24T15:02:34;9.10;99.90
52415;DHT22;38340;52.964;6.086;2023-04-24T15:05:02;9.20;99.90
52415;DHT22;38340;52.964;6.086;2023-04-24T15:07:28;9.50;99.90
52415;DHT22;38340;52.964;6.086;2023-04-24T15:09:54;9.60;99.90
52415;DHT22;38340;52.964;6.086;2023-04-24T15:12:20;9.50;99.90
52415;DHT22;38340;52.964;6.086;2023-04-24T15:14:46;9.40;99.90
52415;DHT22;38340;52.964;6.086;2023-04-24T15:17:12;9.20;99.90
52415;DHT22;38340;52.964;6.086;2023-04-24T15:19:37;9.20;99.90
52415;DHT22;38340;52.964;6.086;2023-04-24T15:22:03;9.20;99.90
52415;DHT22;38340;52.964;6.086;2023-04-24T15:24:29;9.10;99.90
52415;DHT22;38340;52.964;6.086;2023-04-24T15:26:54;9.10;99.90
52415;DHT22;38340;52.964;6.086;2023-04-24T15:29:20;9.10;99.90
52415;DHT22;38340;52.964;6.086;2023-04-24T15:31:46;9.20;99.90
52415;DHT22;38340;52.964;6.086;2023-04-24T15:34:12;9.20;99.90
52415;DHT22;38340;52.964;6.086;2023-04-24T15:36:37;9.10;99.90
52415;DHT22;38340;52.964;6.086;2023-04-24T15:39:03;9.20;99.90
52415;DHT22;38340;52.964;6.086;2023-04-24T15:41:29;9.10;99.90
52415;DHT22;38340;52.964;6.086;2023-04-24T15:43:54;9.00;99.90
52415;DHT22;38340;52.964;6.086;2023-04-24T15:46:20;8.90;99.90
52415;DHT22;38340;52.964;6.086;2023-04-24T15:48:46;8.90;99.90